sensor_id;sensor_type;location;lat;lon;timestamp;pressure;altitude;pressure_sealevel;temperature;humidity
73085;BME280;62974;49.460;10.892;2023-02-07T00:01:44;99911.81;;;-2.72;90.41
73085;BME280;62974;49.460;10.892;2023-02-07T00:04:12;99918.69;;;-2.90;89.81
73085;BME280;62974;49.460;10.892;2023-02-07T00:06:39;99922.69;;;-3.01;90.78
73085;BME280;62974;49.460;10.892;2023-02-07T00:09:10;99903.56;;;-2.44;87.59
73085;BME280;62974;49.460;10.892;2023-02-07T00:11:38;99913.00;;;-2.20;89.11
73085;BME280;62974;49.460;10.892;2023-02-07T00:14:07;99904.19;;;-2.00;87.89
73085;BME280;62974;49.460;10.892;2023-02-07T00:16:36;99909.28;;;-2.55;88.34
73085;BME280;62974;49.460;10.892;2023-02-07T00:19:04;99902.34;;;-2.56;88.17
73085;BME280;62974;49.460;10.892;2023-02-07T00:21:31;99907.97;;;-2.45;87.57
73085;BME280;62974;49.460;10.892;2023-02-07T00:23:58;99892.19;;;-2.65;87.40
73085;BME280;62974;49.460;10.892;2023-02-07T00:26:27;99908.44;;;-2.75;88.86
73085;BME280;62974;49.460;10.892;2023-02-07T00:28:56;99887.63;;;-2.41;87.11
73085;BME280;62974;49.460;10.892;2023-02-07T00:31:25;99893.41;;;-2.92;87.77
73085;BME280;62974;49.460;10.892;2023-02-07T00:33:54;99886.03;;;-2.25;88.17
73085;BME280;62974;49.460;10.892;2023-02-07T00:36:23;99874.09;;;-2.32;87.53
73085;BME280;62974;49.460;10.892;2023-02-07T00:38:55;99879.94;;;-2.46;87.08
73085;BME280;62974;49.460;10.892;2023-02-07T00:41:22;99886.25;;;-3.10;87.10
73085;BME280;62974;49.460;10.892;2023-02-07T00:43:51;99882.16;;;-2.75;88.09
73085;BME280;62974;49.460;10.892;2023-02-07T00:46:19;99886.63;;;-2.39;88.89
73085;BME280;62974;49.460;10.892;2023-02-07T00:48:46;99895.56;;;-2.22;89.17
73085;BME280;62974;49.460;10.892;2023-02-07T00:51:14;99898.91;;;-2.19;87.33
73085;BME280;62974;49.460;10.892;2023-02-07T00:53:41;99897.50;;;-2.46;87.34
73085;BME280;62974;49.460;10.892;2023-02-07T00:56:10;99895.22;;;-2.54;88.47
73085;BME280;62974;49.460;10.892;2023-02-07T00:58:38;99898.91;;;-2.58;88.97
73085;BME280;62974;49.460;10.892;2023-02-07T01:01:07;99892.91;;;-1.83;86.51
73085;BME280;62974;49.460;10.892;2023-02-07T01:03:35;99896.53;;;-2.44;86.38
73085;BME280;62974;49.460;10.892;2023-02-07T01:06:04;99904.50;;;-2.65;87.96
73085;BME280;62974;49.460;10.892;2023-02-07T01:08:31;99914.88;;;-3.03;88.55
73085;BME280;62974;49.460;10.892;2023-02-07T01:11:01;99904.75;;;-2.51;87.59
73085;BME280;62974;49.460;10.892;2023-02-07T01:13:29;99904.25;;;-2.20;87.26
73085;BME280;62974;49.460;10.892;2023-02-07T01:15:56;99901.72;;;-2.83;87.08
73085;BME280;62974;49.460;10.892;2023-02-07T01:18:25;99895.03;;;-2.69;86.54
73085;BME280;62974;49.460;10.892;2023-02-07T01:20:53;99914.75;;;-2.39;87.36
73085;BME280;62974;49.460;10.892;2023-02-07T01:23:20;99903.59;;;-2.64;87.97
73085;BME280;62974;49.460;10.892;2023-02-07T01:25:48;99902.06;;;-1.92;87.78
73085;BME280;62974;49.460;10.892;2023-02-07T01:28:15;99893.31;;;-1.74;86.47
73085;BME280;62974;49.460;10.892;2023-02-07T01:30:43;99904.84;;;-3.35;85.03
73085;BME280;62974;49.460;10.892;2023-02-07T01:33:11;99903.38;;;-2.80;88.31
73085;BME280;62974;49.460;10.892;2023-02-07T01:35:40;99919.94;;;-2.58;87.72
73085;BME280;62974;49.460;10.892;2023-02-07T01:38:11;99904.50;;;-2.26;86.13
73085;BME280;62974;49.460;10.892;2023-02-07T01:40:39;99904.97;;;-1.98;85.55
73085;BME280;62974;49.460;10.892;2023-02-07T01:43:12;99906.72;;;-2.36;85.89
73085;BME280;62974;49.460;10.892;2023-02-07T01:45:43;99907.41;;;-3.13;85.56
73085;BME280;62974;49.460;10.892;2023-02-07T01:48:13;99918.56;;;-3.28;87.64
73085;BME280;62974;49.460;10.892;2023-02-07T01:50:44;99910.94;;;-2.52;88.14
73085;BME280;62974;49.460;10.892;2023-02-07T01:53:15;99900.28;;;-2.49;87.93
73085;BME280;62974;49.460;10.892;2023-02-07T01:55:44;99902.72;;;-2.65;88.12
73085;BME280;62974;49.460;10.892;2023-02-07T01:58:12;99905.25;;;-3.67;88.79
73085;BME280;62974;49.460;10.892;2023-02-07T02:00:40;99889.41;;;-2.42;88.14
73085;BME280;62974;49.460;10.892;2023-02-07T02:03:08;99878.13;;;-2.44;86.90
73085;BME280;62974;49.460;10.892;2023-02-07T02:05:36;99877.44;;;-2.28;86.16
73085;BME280;62974;49.460;10.892;2023-02-07T02:08:06;99875.34;;;-2.41;86.80
73085;BME280;62974;49.460;10.892;2023-02-07T02:10:50;99882.19;;;-3.59;87.52
73085;BME280;62974;49.460;10.892;2023-02-07T02:13:27;99882.84;;;-3.33;89.39
73085;BME280;62974;49.460;10.892;2023-02-07T02:16:03;99874.66;;;-2.85;88.22
73085;BME280;62974;49.460;10.892;2023-02-07T02:21:52;99880.25;;;-2.72;88.30
73085;BME280;62974;49.460;10.892;2023-02-07T02:24:47;99887.94;;;-3.08;88.33
73085;BME280;62974;49.460;10.892;2023-02-07T02:27:35;99893.63;;;-2.98;89.89
73085;BME280;62974;49.460;10.892;2023-02-07T02:30:25;99895.13;;;-2.32;86.99
73085;BME280;62974;49.460;10.892;2023-02-07T02:33:10;99904.75;;;-2.12;85.97
73085;BME280;62974;49.460;10.892;2023-02-07T02:35:44;99920.97;;;-2.82;88.71
73085;BME280;62974;49.460;10.892;2023-02-07T02:38:24;99896.00;;;-2.13;84.69
73085;BME280;62974;49.460;10.892;2023-02-07T02:40:54;99884.84;;;-1.99;84.01
73085;BME280;62974;49.460;10.892;2023-02-07T02:43:29;99892.66;;;-1.98;83.98
73085;BME280;62974;49.460;10.892;2023-02-07T02:46:01;99880.38;;;-1.97;82.81
73085;BME280;62974;49.460;10.892;2023-02-07T02:48:33;99877.88;;;-2.00;82.99
73085;BME280;62974;49.460;10.892;2023-02-07T02:51:02;99880.16;;;-1.93;82.70
73085;BME280;62974;49.460;10.892;2023-02-07T02:53:30;99868.13;;;-1.98;82.62
73085;BME280;62974;49.460;10.892;2023-02-07T02:56:26;99875.25;;;-2.00;81.98
73085;BME280;62974;49.460;10.892;2023-02-07T02:59:09;99866.66;;;-2.04;82.04
73085;BME280;62974;49.460;10.892;2023-02-07T03:01:51;99864.88;;;-2.03;82.47
73085;BME280;62974;49.460;10.892;2023-02-07T03:04:32;99865.06;;;-2.08;81.88
73085;BME280;62974;49.460;10.892;2023-02-07T03:07:14;99852.63;;;-2.04;82.15
73085;BME280;62974;49.460;10.892;2023-02-07T03:09:50;99852.69;;;-2.06;82.20
73085;BME280;62974;49.460;10.892;2023-02-07T03:12:22;99855.47;;;-2.09;81.61
73085;BME280;62974;49.460;10.892;2023-02-07T03:14:57;99851.81;;;-2.06;82.31
73085;BME280;62974;49.460;10.892;2023-02-07T03:17:31;99854.91;;;-2.15;80.94
73085;BME280;62974;49.460;10.892;2023-02-07T03:20:05;99852.19;;;-2.14;81.27
73085;BME280;62974;49.460;10.892;2023-02-07T03:22:35;99864.50;;;-2.14;82.29
73085;BME280;62974;49.460;10.892;2023-02-07T03:25:04;99876.72;;;-2.13;83.34
73085;BME280;62974;49.460;10.892;2023-02-07T03:27:33;99856.75;;;-2.17;81.58
73085;BME280;62974;49.460;10.892;2023-02-07T03:30:05;99856.59;;;-2.14;82.16
73085;BME280;62974;49.460;10.892;2023-02-07T03:32:37;99854.25;;;-2.20;81.48
73085;BME280;62974;49.460;10.892;2023-02-07T03:35:11;99860.44;;;-2.21;81.66
73085;BME280;62974;49.460;10.892;2023-02-07T03:37:41;99861.44;;;-2.24;81.65
73085;BME280;62974;49.460;10.892;2023-02-07T03:40:11;99852.75;;;-2.26;80.90
73085;BME280;62974;49.460;10.892;2023-02-07T03:42:42;99855.81;;;-2.35;80.16
73085;BME280;62974;49.460;10.892;2023-02-07T03:45:15;99862.06;;;-2.38;80.61
73085;BME280;62974;49.460;10.892;2023-02-07T03:47:44;99865.34;;;-2.32;81.25
73085;BME280;62974;49.460;10.892;2023-02-07T03:50:14;99864.34;;;-2.30;81.27
73085;BME280;62974;49.460;10.892;2023-02-07T03:52:41;99857.44;;;-2.32;81.24
73085;BME280;62974;49.460;10.892;2023-02-07T03:55:09;99860.34;;;-2.39;80.95
73085;BME280;62974;49.460;10.892;2023-02-07T03:57:37;99867.91;;;-2.31;81.61
73085;BME280;62974;49.460;10.892;2023-02-07T04:00:05;99868.47;;;-2.43;80.38
73085;BME280;62974;49.460;10.892;2023-02-07T04:02:33;99861.63;;;-2.47;80.63
73085;BME280;62974;49.460;10.892;2023-02-07T04:05:00;99871.19;;;-2.46;80.06
73085;BME280;62974;49.460;10.892;2023-02-07T04:07:29;99872.34;;;-2.52;79.96
73085;BME280;62974;49.460;10.892;2023-02-07T04:09:57;99875.22;;;-2.58;80.17
73085;BME280;62974;49.460;10.892;2023-02-07T04:12:24;99880.34;;;-2.55;80.53
73085;BME280;62974;49.460;10.892;2023-02-07T04:14:57;99884.50;;;-2.49;81.07
73085;BME280;62974;49.460;10.892;2023-02-07T04:17:25;99879.63;;;-2.58;80.76
73085;BME280;62974;49.460;10.892;2023-02-07T04:19:56;99875.44;;;-2.62;79.65
73085;BME280;62974;49.460;10.892;2023-02-07T04:22:23;99879.72;;;-2.60;79.93
73085;BME280;62974;49.460;10.892;2023-02-07T04:24:52;99880.50;;;-2.58;81.18
73085;BME280;62974;49.460;10.892;2023-02-07T04:27:20;99877.09;;;-2.60;79.96
73085;BME280;62974;49.460;10.892;2023-02-07T04:29:47;99874.47;;;-2.60;80.29
73085;BME280;62974;49.460;10.892;2023-02-07T04:32:15;99865.41;;;-2.73;78.55
73085;BME280;62974;49.460;10.892;2023-02-07T04:34:43;99865.41;;;-2.73;79.70
73085;BME280;62974;49.460;10.892;2023-02-07T04:37:10;99866.09;;;-2.69;80.11
73085;BME280;62974;49.460;10.892;2023-02-07T04:39:38;99860.94;;;-2.71;79.44
73085;BME280;62974;49.460;10.892;2023-02-07T04:42:07;99854.56;;;-2.86;78.99
73085;BME280;62974;49.460;10.892;2023-02-07T04:44:34;99848.75;;;-2.73;80.47
73085;BME280;62974;49.460;10.892;2023-02-07T04:47:02;99865.41;;;-2.73;81.23
73085;BME280;62974;49.460;10.892;2023-02-07T04:49:29;99857.78;;;-2.79;79.79
73085;BME280;62974;49.460;10.892;2023-02-07T04:51:59;99871.84;;;-2.80;81.15
73085;BME280;62974;49.460;10.892;2023-02-07T04:54:27;99864.69;;;-2.76;80.30
73085;BME280;62974;49.460;10.892;2023-02-07T04:56:54;99854.75;;;-2.90;79.00
73085;BME280;62974;49.460;10.892;2023-02-07T04:59:23;99861.91;;;-2.94;78.46
73085;BME280;62974;49.460;10.892;2023-02-07T05:01:51;99855.88;;;-2.96;79.40
73085;BME280;62974;49.460;10.892;2023-02-07T05:04:18;99867.97;;;-2.92;79.79
73085;BME280;62974;49.460;10.892;2023-02-07T05:06:46;99876.00;;;-2.95;79.37
73085;BME280;62974;49.460;10.892;2023-02-07T05:09:13;99880.31;;;-2.94;79.17
73085;BME280;62974;49.460;10.892;2023-02-07T05:11:41;99880.44;;;-2.97;78.99
73085;BME280;62974;49.460;10.892;2023-02-07T05:14:08;99875.19;;;-2.97;79.35
73085;BME280;62974;49.460;10.892;2023-02-07T05:16:37;99863.03;;;-2.99;79.31
73085;BME280;62974;49.460;10.892;2023-02-07T05:19:05;99870.78;;;-2.96;79.73
73085;BME280;62974;49.460;10.892;2023-02-07T05:21:32;99870.25;;;-3.04;79.07
73085;BME280;62974;49.460;10.892;2023-02-07T05:24:00;99871.97;;;-3.03;78.81
73085;BME280;62974;49.460;10.892;2023-02-07T05:26:27;99873.44;;;-3.18;77.50
73085;BME280;62974;49.460;10.892;2023-02-07T05:28:55;99874.78;;;-3.08;78.28
73085;BME280;62974;49.460;10.892;2023-02-07T05:31:22;99873.94;;;-3.08;79.95
73085;BME280;62974;49.460;10.892;2023-02-07T05:34:11;99869.44;;;-3.06;78.96
73085;BME280;62974;49.460;10.892;2023-02-07T05:36:38;99853.47;;;-3.22;78.64
73085;BME280;62974;49.460;10.892;2023-02-07T05:39:06;99864.06;;;-3.23;78.22
73085;BME280;62974;49.460;10.892;2023-02-07T05:41:33;99879.38;;;-3.13;79.15
73085;BME280;62974;49.460;10.892;2023-02-07T05:44:00;99873.72;;;-3.24;78.06
73085;BME280;62974;49.460;10.892;2023-02-07T05:46:28;99884.91;;;-3.19;78.48
73085;BME280;62974;49.460;10.892;2023-02-07T05:48:56;99889.88;;;-3.13;79.61
73085;BME280;62974;49.460;10.892;2023-02-07T05:51:24;99892.78;;;-3.19;78.34
73085;BME280;62974;49.460;10.892;2023-02-07T05:53:52;99898.09;;;-3.20;78.95
73085;BME280;62974;49.460;10.892;2023-02-07T05:56:19;99905.28;;;-3.25;77.66
73085;BME280;62974;49.460;10.892;2023-02-07T05:58:47;99914.16;;;-3.28;78.10
73085;BME280;62974;49.460;10.892;2023-02-07T06:01:14;99921.06;;;-3.25;79.17
73085;BME280;62974;49.460;10.892;2023-02-07T06:03:42;99926.16;;;-3.22;79.53
73085;BME280;62974;49.460;10.892;2023-02-07T06:06:09;99932.53;;;-3.28;79.27
73085;BME280;62974;49.460;10.892;2023-02-07T06:08:38;99926.38;;;-3.27;78.50
73085;BME280;62974;49.460;10.892;2023-02-07T06:11:06;99928.66;;;-3.40;78.76
73085;BME280;62974;49.460;10.892;2023-02-07T06:13:33;99920.63;;;-3.37;77.89
73085;BME280;62974;49.460;10.892;2023-02-07T06:16:01;99918.91;;;-3.38;78.73
73085;BME280;62974;49.460;10.892;2023-02-07T06:18:28;99915.38;;;-3.37;78.37
73085;BME280;62974;49.460;10.892;2023-02-07T06:20:56;99913.06;;;-3.44;77.30
73085;BME280;62974;49.460;10.892;2023-02-07T06:23:23;99930.63;;;-3.46;79.03
73085;BME280;62974;49.460;10.892;2023-02-07T06:25:52;99924.06;;;-3.56;77.68
73085;BME280;62974;49.460;10.892;2023-02-07T06:28:20;99941.78;;;-3.40;78.99
73085;BME280;62974;49.460;10.892;2023-02-07T06:30:49;99941.13;;;-3.46;77.83
73085;BME280;62974;49.460;10.892;2023-02-07T06:33:17;99948.19;;;-3.47;78.62
73085;BME280;62974;49.460;10.892;2023-02-07T06:35:44;99954.56;;;-3.54;77.55
73085;BME280;62974;49.460;10.892;2023-02-07T06:38:12;99971.25;;;-3.55;78.06
73085;BME280;62974;49.460;10.892;2023-02-07T06:40:41;99976.59;;;-3.58;78.43
73085;BME280;62974;49.460;10.892;2023-02-07T06:43:10;99978.09;;;-3.51;77.96
73085;BME280;62974;49.460;10.892;2023-02-07T06:45:38;99975.69;;;-3.57;77.34
73085;BME280;62974;49.460;10.892;2023-02-07T06:48:08;99981.38;;;-3.91;78.63
73085;BME280;62974;49.460;10.892;2023-02-07T06:50:35;99975.88;;;-3.61;78.01
73085;BME280;62974;49.460;10.892;2023-02-07T06:53:03;99982.28;;;-3.68;77.94
73085;BME280;62974;49.460;10.892;2023-02-07T06:55:34;99993.22;;;-3.57;78.42
73085;BME280;62974;49.460;10.892;2023-02-07T06:58:03;99992.47;;;-3.61;78.49
73085;BME280;62974;49.460;10.892;2023-02-07T07:00:32;99985.81;;;-3.69;77.53
73085;BME280;62974;49.460;10.892;2023-02-07T07:03:00;99993.59;;;-3.66;77.79
73085;BME280;62974;49.460;10.892;2023-02-07T07:05:28;99992.72;;;-3.67;77.90
73085;BME280;62974;49.460;10.892;2023-02-07T07:07:56;99978.66;;;-3.66;78.41
73085;BME280;62974;49.460;10.892;2023-02-07T07:10:24;99973.41;;;-3.66;79.11
73085;BME280;62974;49.460;10.892;2023-02-07T07:12:51;99976.72;;;-3.61;79.47
73085;BME280;62974;49.460;10.892;2023-02-07T07:15:19;99980.16;;;-3.59;80.08
73085;BME280;62974;49.460;10.892;2023-02-07T07:17:47;99999.00;;;-4.42;82.58
73085;BME280;62974;49.460;10.892;2023-02-07T07:20:15;99993.41;;;-3.85;81.65
73085;BME280;62974;49.460;10.892;2023-02-07T07:22:43;99997.72;;;-3.61;81.22
73085;BME280;62974;49.460;10.892;2023-02-07T07:25:10;99997.44;;;-3.53;81.46
73085;BME280;62974;49.460;10.892;2023-02-07T07:27:38;99991.44;;;-3.57;80.50
73085;BME280;62974;49.460;10.892;2023-02-07T07:30:06;100004.13;;;-4.14;81.54
73085;BME280;62974;49.460;10.892;2023-02-07T07:32:38;100011.53;;;-3.56;82.95
73085;BME280;62974;49.460;10.892;2023-02-07T07:35:08;100021.84;;;-4.98;84.22
73085;BME280;62974;49.460;10.892;2023-02-07T07:37:35;100013.31;;;-4.52;88.34
73085;BME280;62974;49.460;10.892;2023-02-07T07:40:04;100004.19;;;-3.69;84.46
73085;BME280;62974;49.460;10.892;2023-02-07T07:42:31;100005.56;;;-3.59;82.79
73085;BME280;62974;49.460;10.892;2023-02-07T07:45:00;100025.88;;;-5.16;86.58
73085;BME280;62974;49.460;10.892;2023-02-07T07:47:28;100018.63;;;-4.54;88.10
73085;BME280;62974;49.460;10.892;2023-02-07T07:49:55;100021.53;;;-3.89;87.33
73085;BME280;62974;49.460;10.892;2023-02-07T07:52:24;100012.56;;;-3.60;84.82
73085;BME280;62974;49.460;10.892;2023-02-07T07:54:51;100019.13;;;-4.44;85.22
73085;BME280;62974;49.460;10.892;2023-02-07T07:57:19;100026.22;;;-4.46;88.59
73085;BME280;62974;49.460;10.892;2023-02-07T07:59:47;100031.16;;;-4.90;87.70
73085;BME280;62974;49.460;10.892;2023-02-07T08:02:14;100032.97;;;-5.47;90.90
73085;BME280;62974;49.460;10.892;2023-02-07T08:04:42;100029.09;;;-5.06;90.32
73085;BME280;62974;49.460;10.892;2023-02-07T08:07:09;100027.03;;;-4.70;91.31
73085;BME280;62974;49.460;10.892;2023-02-07T08:09:38;100022.13;;;-4.55;89.87
73085;BME280;62974;49.460;10.892;2023-02-07T08:12:06;100020.16;;;-3.75;86.83
73085;BME280;62974;49.460;10.892;2023-02-07T08:14:33;100010.41;;;-3.95;86.25
73085;BME280;62974;49.460;10.892;2023-02-07T08:17:01;100013.34;;;-4.29;88.24
73085;BME280;62974;49.460;10.892;2023-02-07T08:19:29;100014.81;;;-4.20;89.88
73085;BME280;62974;49.460;10.892;2023-02-07T08:21:56;100016.09;;;-3.61;87.71
73085;BME280;62974;49.460;10.892;2023-02-07T08:24:24;100013.91;;;-4.44;86.98
73085;BME280;62974;49.460;10.892;2023-02-07T08:26:54;100003.13;;;-3.87;87.45
73085;BME280;62974;49.460;10.892;2023-02-07T08:29:22;100001.22;;;-3.60;86.92
73085;BME280;62974;49.460;10.892;2023-02-07T08:31:49;99992.69;;;-3.44;85.81
73085;BME280;62974;49.460;10.892;2023-02-07T08:34:17;99996.25;;;-3.91;85.50
73085;BME280;62974;49.460;10.892;2023-02-07T08:36:49;99992.16;;;-3.75;86.23
73085;BME280;62974;49.460;10.892;2023-02-07T08:39:16;100000.97;;;-4.01;86.22
73085;BME280;62974;49.460;10.892;2023-02-07T08:41:44;99992.00;;;-3.49;85.32
73085;BME280;62974;49.460;10.892;2023-02-07T08:44:13;99995.91;;;-3.82;85.59
73085;BME280;62974;49.460;10.892;2023-02-07T08:46:41;99998.19;;;-3.96;85.86
73085;BME280;62974;49.460;10.892;2023-02-07T08:49:08;100009.44;;;-3.69;86.36
73085;BME280;62974;49.460;10.892;2023-02-07T08:51:36;99993.34;;;-3.84;86.12
73085;BME280;62974;49.460;10.892;2023-02-07T08:54:03;99994.03;;;-3.78;85.98
73085;BME280;62974;49.460;10.892;2023-02-07T08:56:31;99993.22;;;-3.57;85.22
73085;BME280;62974;49.460;10.892;2023-02-07T08:58:58;99995.66;;;-3.53;84.92
73085;BME280;62974;49.460;10.892;2023-02-07T09:01:27;99991.03;;;-3.46;85.03
73085;BME280;62974;49.460;10.892;2023-02-07T09:03:55;99988.25;;;-3.20;83.96
73085;BME280;62974;49.460;10.892;2023-02-07T09:06:24;99989.47;;;-3.28;84.20
73085;BME280;62974;49.460;10.892;2023-02-07T09:08:52;99999.06;;;-3.72;84.83
73085;BME280;62974;49.460;10.892;2023-02-07T09:11:19;99981.94;;;-3.38;84.69
73085;BME280;62974;49.460;10.892;2023-02-07T09:13:47;99977.16;;;-3.71;83.27
73085;BME280;62974;49.460;10.892;2023-02-07T09:16:15;99984.72;;;-3.64;84.16
73085;BME280;62974;49.460;10.892;2023-02-07T09:18:44;99977.41;;;-3.56;84.29
73085;BME280;62974;49.460;10.892;2023-02-07T09:21:11;99973.69;;;-3.50;82.39
73085;BME280;62974;49.460;10.892;2023-02-07T09:23:39;99981.00;;;-3.35;82.03
73085;BME280;62974;49.460;10.892;2023-02-07T09:26:07;99977.91;;;-3.46;81.26
73085;BME280;62974;49.460;10.892;2023-02-07T09:28:35;99971.31;;;-3.56;79.21
73085;BME280;62974;49.460;10.892;2023-02-07T09:31:06;99975.09;;;-3.42;79.71
73085;BME280;62974;49.460;10.892;2023-02-07T09:33:35;99969.38;;;-3.29;80.20
73085;BME280;62974;49.460;10.892;2023-02-07T09:36:04;99968.88;;;-3.17;80.86
73085;BME280;62974;49.460;10.892;2023-02-07T09:38:32;99961.38;;;-3.26;79.10
73085;BME280;62974;49.460;10.892;2023-02-07T09:40:59;99967.28;;;-3.21;79.18
73085;BME280;62974;49.460;10.892;2023-02-07T09:43:37;99965.56;;;-3.22;79.24
73085;BME280;62974;49.460;10.892;2023-02-07T09:46:11;99952.97;;;-3.14;77.30
73085;BME280;62974;49.460;10.892;2023-02-07T09:48:45;99960.81;;;-3.13;78.27
73085;BME280;62974;49.460;10.892;2023-02-07T09:51:18;99957.50;;;-2.96;79.95
73085;BME280;62974;49.460;10.892;2023-02-07T09:53:49;99961.50;;;-3.08;78.95
73085;BME280;62974;49.460;10.892;2023-02-07T09:56:20;99967.34;;;-3.01;78.96
73085;BME280;62974;49.460;10.892;2023-02-07T09:58:53;99974.50;;;-2.83;80.20
73085;BME280;62974;49.460;10.892;2023-02-07T10:01:26;99960.41;;;-2.82;77.60
73085;BME280;62974;49.460;10.892;2023-02-07T10:04:07;99960.69;;;-2.68;79.22
73085;BME280;62974;49.460;10.892;2023-02-07T10:06:44;99963.38;;;-2.69;79.45
73085;BME280;62974;49.460;10.892;2023-02-07T10:09:15;99961.66;;;-2.70;78.13
73085;BME280;62974;49.460;10.892;2023-02-07T10:11:49;99959.31;;;-2.56;79.81
73085;BME280;62974;49.460;10.892;2023-02-07T10:14:28;99946.41;;;-2.83;76.13
73085;BME280;62974;49.460;10.892;2023-02-07T10:17:13;99943.06;;;-2.66;77.99
73085;BME280;62974;49.460;10.892;2023-02-07T10:20:05;99942.09;;;-2.63;78.66
73085;BME280;62974;49.460;10.892;2023-02-07T10:22:47;99945.50;;;-2.61;77.44
73085;BME280;62974;49.460;10.892;2023-02-07T10:25:22;99947.56;;;-2.68;77.16
73085;BME280;62974;49.460;10.892;2023-02-07T10:28:14;99948.28;;;-2.44;77.74
73085;BME280;62974;49.460;10.892;2023-02-07T10:30:48;99943.16;;;-2.47;75.53
73085;BME280;62974;49.460;10.892;2023-02-07T10:33:18;99946.75;;;-2.50;76.58
73085;BME280;62974;49.460;10.892;2023-02-07T10:35:47;99942.94;;;-2.43;74.08
73085;BME280;62974;49.460;10.892;2023-02-07T10:38:22;99934.59;;;-2.32;73.25
73085;BME280;62974;49.460;10.892;2023-02-07T10:41:00;99940.28;;;-2.22;73.59
73085;BME280;62974;49.460;10.892;2023-02-07T10:43:30;99944.38;;;-2.15;74.38
73085;BME280;62974;49.460;10.892;2023-02-07T10:46:00;99944.44;;;-2.17;72.89
73085;BME280;62974;49.460;10.892;2023-02-07T10:48:32;99932.56;;;-2.07;69.64
73085;BME280;62974;49.460;10.892;2023-02-07T10:51:01;99934.00;;;-2.00;70.87
73085;BME280;62974;49.460;10.892;2023-02-07T10:53:43;99934.94;;;-2.01;71.48
73085;BME280;62974;49.460;10.892;2023-02-07T10:56:21;99930.06;;;-2.10;72.06
73085;BME280;62974;49.460;10.892;2023-02-07T10:58:50;99924.97;;;-1.94;70.42
73085;BME280;62974;49.460;10.892;2023-02-07T11:01:21;99922.91;;;-1.87;70.15
73085;BME280;62974;49.460;10.892;2023-02-07T11:03:49;99923.28;;;-1.95;70.15
73085;BME280;62974;49.460;10.892;2023-02-07T11:06:24;99910.88;;;-1.93;68.57
73085;BME280;62974;49.460;10.892;2023-02-07T11:09:17;99906.09;;;-1.66;67.85
73085;BME280;62974;49.460;10.892;2023-02-07T11:11:47;99898.13;;;-1.65;65.09
73085;BME280;62974;49.460;10.892;2023-02-07T11:14:18;99896.38;;;-1.64;65.35
73085;BME280;62974;49.460;10.892;2023-02-07T11:16:52;99889.78;;;-1.37;64.07
73085;BME280;62974;49.460;10.892;2023-02-07T11:19:22;99887.25;;;-1.57;64.88
73085;BME280;62974;49.460;10.892;2023-02-07T11:21:52;99881.38;;;-1.45;64.52
73085;BME280;62974;49.460;10.892;2023-02-07T11:24:26;99890.63;;;-1.36;66.52
73085;BME280;62974;49.460;10.892;2023-02-07T11:26:59;99855.75;;;-1.07;58.62
73085;BME280;62974;49.460;10.892;2023-02-07T11:29:29;99868.94;;;-1.07;62.62
73085;BME280;62974;49.460;10.892;2023-02-07T11:32:00;99862.75;;;-0.89;60.19
73085;BME280;62974;49.460;10.892;2023-02-07T11:34:47;99870.88;;;-1.11;62.47
73085;BME280;62974;49.460;10.892;2023-02-07T11:37:27;99878.63;;;-1.25;65.01
73085;BME280;62974;49.460;10.892;2023-02-07T11:40:19;99861.59;;;-1.01;58.57
73085;BME280;62974;49.460;10.892;2023-02-07T11:42:48;99863.00;;;-0.76;57.29
73085;BME280;62974;49.460;10.892;2023-02-07T11:45:20;99853.75;;;-0.85;58.01
73085;BME280;62974;49.460;10.892;2023-02-07T11:47:52;99860.81;;;-1.03;59.55
73085;BME280;62974;49.460;10.892;2023-02-07T11:50:23;99848.16;;;-0.79;56.02
73085;BME280;62974;49.460;10.892;2023-02-07T11:52:53;99860.53;;;-0.64;56.80
73085;BME280;62974;49.460;10.892;2023-02-07T11:55:25;99871.03;;;-0.62;58.81
73085;BME280;62974;49.460;10.892;2023-02-07T11:57:54;99865.69;;;-0.78;58.54
73085;BME280;62974;49.460;10.892;2023-02-07T12:00:24;99874.53;;;-0.79;60.22
73085;BME280;62974;49.460;10.892;2023-02-07T12:03:00;99851.59;;;-0.77;57.07
73085;BME280;62974;49.460;10.892;2023-02-07T12:05:31;99849.63;;;-0.56;57.11
73085;BME280;62974;49.460;10.892;2023-02-07T12:08:03;99857.66;;;-0.42;57.09
73085;BME280;62974;49.460;10.892;2023-02-07T12:10:35;99866.72;;;-0.48;57.82
73085;BME280;62974;49.460;10.892;2023-02-07T12:13:06;99848.47;;;-0.35;55.86
73085;BME280;62974;49.460;10.892;2023-02-07T12:15:40;99841.19;;;-0.14;55.16
73085;BME280;62974;49.460;10.892;2023-02-07T12:18:14;99836.28;;;-0.37;55.45
73085;BME280;62974;49.460;10.892;2023-02-07T12:20:49;99852.47;;;-0.28;57.14
73085;BME280;62974;49.460;10.892;2023-02-07T12:23:22;99839.03;;;-0.23;54.65
73085;BME280;62974;49.460;10.892;2023-02-07T12:26:15;99849.88;;;-0.12;55.53
73085;BME280;62974;49.460;10.892;2023-02-07T12:28:50;99875.03;;;-0.55;62.05
73085;BME280;62974;49.460;10.892;2023-02-07T12:31:43;99860.72;;;-0.34;57.52
73085;BME280;62974;49.460;10.892;2023-02-07T12:34:17;99845.88;;;-0.04;54.92
73085;BME280;62974;49.460;10.892;2023-02-07T12:36:50;99875.22;;;-0.25;60.59
73085;BME280;62974;49.460;10.892;2023-02-07T12:39:27;99873.72;;;-0.14;60.35
73085;BME280;62974;49.460;10.892;2023-02-07T12:42:09;99861.41;;;0.18;58.21
73085;BME280;62974;49.460;10.892;2023-02-07T12:44:42;99856.72;;;0.08;54.30
73085;BME280;62974;49.460;10.892;2023-02-07T12:47:16;99869.91;;;-0.08;57.62
73085;BME280;62974;49.460;10.892;2023-02-07T12:50:00;99868.31;;;-0.28;58.84
73085;BME280;62974;49.460;10.892;2023-02-07T12:52:38;99848.94;;;0.20;54.16
73085;BME280;62974;49.460;10.892;2023-02-07T12:55:19;99842.81;;;0.35;52.09
73085;BME280;62974;49.460;10.892;2023-02-07T12:58:01;99857.41;;;0.42;51.84
73085;BME280;62974;49.460;10.892;2023-02-07T13:00:49;99864.13;;;0.32;53.36
73085;BME280;62974;49.460;10.892;2023-02-07T13:03:26;99875.09;;;0.25;56.84
73085;BME280;62974;49.460;10.892;2023-02-07T13:06:03;99865.66;;;0.36;55.61
73085;BME280;62974;49.460;10.892;2023-02-07T13:08:44;99873.00;;;0.16;57.12
73085;BME280;62974;49.460;10.892;2023-02-07T13:11:20;99857.00;;;0.64;54.67
73085;BME280;62974;49.460;10.892;2023-02-07T13:14:04;99851.03;;;0.76;53.62